createdAt,value
2023-04-27T00:00:11.263Z,1.57
2023-04-27T00:02:58.439Z,1.50
2023-04-27T00:05:45.732Z,1.70
2023-04-27T00:08:32.942Z,1.17
2023-04-27T00:11:19.938Z,1.60
2023-04-27T00:14:06.939Z,1.80
2023-04-27T00:16:54.298Z,2.00
2023-04-27T00:19:41.919Z,1.97
2023-04-27T00:22:28.924Z,1.93
2023-04-27T00:25:16.136Z,1.63
2023-04-27T00:28:03.152Z,1.90
2023-04-27T00:30:54.278Z,1.90
2023-04-27T00:33:41.293Z,2.03
2023-04-27T00:36:28.377Z,1.87
2023-04-27T00:39:15.687Z,1.90
2023-04-27T00:42:02.973Z,1.70
2023-04-27T00:44:49.928Z,1.80
2023-04-27T00:47:37.087Z,2.00
2023-04-27T00:50:31.688Z,2.20
2023-04-27T00:53:19.524Z,1.77
2023-04-27T00:56:07.493Z,1.50
2023-04-27T00:58:54.474Z,1.90
2023-04-27T01:01:41.778Z,1.93
2023-04-27T01:04:29.961Z,2.30
2023-04-27T01:07:17.798Z,1.90
2023-04-27T01:10:06.029Z,1.90
2023-04-27T01:12:53.086Z,2.07
2023-04-27T01:15:41.125Z,2.40
2023-04-27T01:18:30.103Z,1.93
2023-04-27T01:21:17.288Z,1.87
2023-04-27T01:24:06.294Z,2.00
2023-04-27T01:26:53.982Z,2.20
2023-04-27T01:29:41.216Z,1.80
2023-04-27T01:32:29.258Z,2.30
2023-04-27T01:35:16.567Z,2.30
2023-04-27T01:38:03.640Z,2.23
2023-04-27T01:40:50.786Z,2.30
2023-04-27T01:43:37.780Z,2.20
2023-04-27T01:46:24.933Z,2.23
2023-04-27T01:49:12.204Z,2.20
2023-04-27T01:51:59.479Z,2.23
2023-04-27T01:54:46.708Z,2.17
2023-04-27T01:57:33.760Z,1.80
2023-04-27T02:00:21.421Z,1.93
2023-04-27T02:03:08.686Z,1.80
2023-04-27T02:05:55.864Z,1.83
2023-04-27T02:08:42.886Z,1.97
2023-04-27T02:11:29.827Z,1.90
2023-04-27T02:14:16.876Z,2.37
2023-04-27T02:17:06.806Z,2.50
2023-04-27T02:19:53.799Z,2.40
2023-04-27T02:22:43.607Z,1.83
2023-04-27T02:25:30.601Z,2.10
2023-04-27T02:28:17.658Z,1.80
2023-04-27T02:31:05.263Z,2.40
2023-04-27T02:33:52.613Z,2.03
2023-04-27T02:36:39.593Z,2.40
2023-04-27T02:39:26.707Z,2.20
2023-04-27T02:42:13.713Z,2.00
2023-04-27T02:45:02.246Z,2.00
2023-04-27T02:47:50.964Z,1.70
2023-04-27T02:50:42.272Z,2.10
2023-04-27T02:53:29.438Z,2.00
2023-04-27T02:56:16.668Z,1.87
2023-04-27T02:59:04.018Z,1.53
2023-04-27T03:01:51.003Z,1.70
2023-04-27T03:04:38.482Z,1.80
2023-04-27T03:07:25.786Z,2.00
2023-04-27T03:10:12.782Z,2.10
2023-04-27T03:12:59.885Z,2.17
2023-04-27T03:15:48.628Z,1.80
2023-04-27T03:18:35.921Z,2.17
2023-04-27T03:21:22.922Z,2.20
2023-04-27T03:24:09.949Z,2.13
2023-04-27T03:26:56.912Z,1.77
2023-04-27T03:29:43.922Z,1.90
2023-04-27T03:32:32.026Z,2.30
2023-04-27T03:35:21.566Z,2.00
2023-04-27T03:38:08.550Z,2.10
2023-04-27T03:40:56.043Z,2.47
2023-04-27T03:43:44.146Z,1.90
2023-04-27T03:46:31.325Z,1.83
2023-04-27T03:49:19.841Z,2.10
2023-04-27T03:52:06.870Z,2.00
2023-04-27T03:54:55.088Z,1.90
2023-04-27T03:57:42.097Z,1.90
2023-04-27T04:00:29.595Z,2.40
2023-04-27T04:03:16.851Z,2.17
2023-04-27T04:06:04.043Z,2.23
2023-04-27T04:08:51.015Z,2.10
2023-04-27T04:11:38.280Z,1.73
2023-04-27T04:14:27.899Z,1.93
2023-04-27T04:17:15.391Z,1.87
2023-04-27T04:20:03.144Z,2.03
2023-04-27T04:22:50.170Z,2.30
2023-04-27T04:25:37.240Z,1.70
2023-04-27T04:28:25.234Z,2.10
2023-04-27T04:31:13.438Z,1.70
2023-04-27T04:34:01.816Z,1.67
2023-04-27T04:36:51.748Z,2.00
2023-04-27T04:39:39.620Z,1.87
2023-04-27T04:42:27.664Z,2.13
2023-04-27T04:45:15.350Z,2.30
2023-04-27T04:48:02.685Z,2.07
2023-04-27T04:50:49.782Z,1.90
2023-04-27T04:53:37.153Z,1.83
2023-04-27T04:56:24.413Z,2.03
2023-04-27T04:59:13.966Z,2.00
2023-04-27T05:02:01.405Z,1.73
2023-04-27T05:04:48.711Z,2.10
2023-04-27T05:07:36.000Z,2.10
2023-04-27T05:10:23.111Z,2.10
2023-04-27T05:13:10.088Z,2.60
2023-04-27T05:15:57.123Z,2.30
2023-04-27T05:18:44.153Z,2.00
2023-04-27T05:21:31.965Z,2.30
2023-04-27T05:24:18.977Z,2.50
2023-04-27T05:27:06.103Z,2.60
2023-04-27T05:29:53.109Z,2.30
2023-04-27T05:32:40.170Z,2.43
2023-04-27T05:35:27.185Z,2.47
2023-04-27T05:38:17.362Z,2.20
2023-04-27T05:41:04.519Z,2.83
2023-04-27T05:43:51.555Z,2.67
2023-04-27T05:46:38.976Z,2.80
2023-04-27T05:49:26.674Z,2.47
2023-04-27T05:52:13.651Z,2.37
2023-04-27T05:55:00.797Z,2.27
2023-04-27T05:57:54.459Z,2.90
2023-04-27T06:00:52.412Z,2.63
2023-04-27T06:03:39.688Z,2.50
2023-04-27T06:06:28.190Z,2.90
2023-04-27T06:09:15.694Z,2.67
2023-04-27T06:12:06.064Z,2.53
2023-04-27T06:14:53.042Z,2.60
2023-04-27T06:17:40.157Z,2.43
2023-04-27T06:20:27.260Z,2.60
2023-04-27T06:23:14.328Z,2.53
2023-04-27T06:26:02.432Z,2.57
2023-04-27T06:28:49.510Z,2.70
2023-04-27T06:31:36.754Z,2.57
2023-04-27T06:34:23.812Z,2.60
2023-04-27T06:37:11.037Z,2.87
2023-04-27T06:39:58.030Z,2.70
2023-04-27T06:42:45.106Z,2.60
2023-04-27T06:45:32.087Z,2.40
2023-04-27T06:48:19.161Z,2.50
2023-04-27T06:51:06.491Z,2.70
2023-04-27T06:53:54.197Z,2.50
2023-04-27T06:56:41.573Z,2.43
2023-04-27T06:59:28.784Z,2.93
2023-04-27T07:02:16.265Z,2.40
2023-04-27T07:05:03.498Z,2.73
2023-04-27T07:07:50.719Z,2.20
2023-04-27T07:10:37.725Z,2.73
2023-04-27T07:13:24.767Z,2.60
2023-04-27T07:16:11.807Z,2.30
2023-04-27T07:18:58.789Z,2.50
2023-04-27T07:21:45.912Z,2.40
2023-04-27T07:24:33.252Z,2.67
2023-04-27T07:27:21.457Z,2.53
2023-04-27T07:30:10.087Z,2.67
2023-04-27T07:32:57.746Z,2.70
2023-04-27T07:35:44.791Z,2.40
2023-04-27T07:38:31.909Z,2.33
2023-04-27T07:41:20.288Z,2.67
2023-04-27T07:44:07.344Z,2.27
2023-04-27T07:46:54.722Z,2.27
2023-04-27T07:49:41.843Z,2.50
2023-04-27T07:52:28.802Z,2.53
2023-04-27T07:55:16.255Z,2.43
2023-04-27T07:58:04.621Z,2.70
2023-04-27T08:00:51.686Z,2.60
2023-04-27T08:03:38.993Z,2.63
2023-04-27T08:06:28.843Z,2.53
2023-04-27T08:09:16.506Z,2.60
2023-04-27T08:12:04.029Z,2.60
2023-04-27T08:14:51.133Z,2.37
2023-04-27T08:17:40.846Z,2.67
2023-04-27T08:20:27.948Z,3.13
2023-04-27T08:23:15.148Z,2.53
2023-04-27T08:26:02.161Z,2.67
2023-04-27T08:28:49.926Z,3.10
2023-04-27T08:31:36.931Z,3.00
2023-04-27T08:34:24.209Z,2.60
2023-04-27T08:37:11.262Z,2.73
2023-04-27T08:39:58.289Z,2.43
2023-04-27T08:42:56.209Z,3.10
2023-04-27T08:45:49.209Z,2.90
2023-04-27T08:48:36.227Z,2.73
2023-04-27T08:51:25.445Z,2.67
2023-04-27T08:54:12.459Z,2.67
2023-04-27T08:56:59.434Z,2.80
2023-04-27T08:59:59.132Z,2.53
2023-04-27T09:02:47.528Z,2.60
2023-04-27T09:05:34.917Z,2.60
2023-04-27T09:08:22.038Z,2.70
2023-04-27T09:11:09.181Z,2.63
2023-04-27T09:13:56.228Z,2.50
2023-04-27T09:16:43.989Z,2.70
2023-04-27T09:19:31.575Z,2.83
2023-04-27T09:22:18.560Z,2.60
2023-04-27T09:25:05.886Z,2.43
2023-04-27T09:27:53.185Z,2.67
2023-04-27T09:30:40.185Z,2.60
2023-04-27T09:33:35.960Z,2.87
2023-04-27T09:36:24.523Z,2.50
2023-04-27T09:39:11.989Z,2.53
2023-04-27T09:41:59.284Z,2.97
2023-04-27T09:44:46.919Z,2.67
2023-04-27T09:47:34.481Z,2.70
2023-04-27T09:50:24.717Z,2.60
2023-04-27T09:53:14.310Z,2.63
2023-04-27T09:56:35.044Z,2.47
2023-04-27T09:59:53.593Z,2.30
2023-04-27T10:03:03.717Z,2.57
2023-04-27T10:06:13.032Z,2.30
2023-04-27T10:09:04.143Z,2.27
2023-04-27T10:11:53.234Z,2.10
2023-04-27T10:14:50.989Z,2.27
2023-04-27T10:17:38.065Z,2.53
2023-04-27T10:20:33.609Z,2.67
2023-04-27T10:23:27.388Z,2.43
2023-04-27T10:26:26.533Z,2.60
2023-04-27T10:29:16.468Z,2.47
2023-04-27T10:32:08.492Z,2.57
2023-04-27T10:35:08.994Z,1.87
2023-04-27T10:38:25.923Z,2.43
2023-04-27T10:41:14.687Z,2.30
2023-04-27T10:44:16.855Z,2.10
2023-04-27T10:47:19.731Z,2.20
2023-04-27T10:50:09.170Z,1.93
2023-04-27T10:53:02.990Z,2.20
2023-04-27T10:55:56.397Z,2.10
2023-04-27T10:58:48.940Z,2.40
2023-04-27T11:01:37.315Z,2.30
2023-04-27T11:04:24.544Z,2.20
2023-04-27T11:07:12.314Z,2.40
2023-04-27T11:09:59.337Z,2.20
2023-04-27T11:12:47.003Z,2.13
2023-04-27T11:15:43.520Z,2.70
2023-04-27T11:18:31.791Z,1.90
2023-04-27T11:21:21.401Z,2.47
2023-04-27T11:24:10.019Z,2.17
2023-04-27T11:26:57.148Z,2.27
2023-04-27T11:29:44.593Z,2.27
2023-04-27T11:32:31.957Z,2.53
2023-04-27T11:35:19.129Z,1.93
2023-04-27T11:38:06.265Z,2.30
2023-04-27T11:41:01.678Z,2.07
2023-04-27T11:43:49.476Z,2.33
2023-04-27T11:46:38.111Z,2.30
2023-04-27T11:49:25.851Z,2.30
2023-04-27T11:52:13.717Z,2.30
2023-04-27T11:55:01.975Z,2.00
2023-04-27T11:57:49.167Z,2.13
2023-04-27T12:00:36.381Z,2.70
2023-04-27T12:03:23.912Z,2.37
2023-04-27T12:06:31.852Z,2.50
2023-04-27T12:09:18.965Z,2.30
2023-04-27T12:12:06.528Z,2.40
2023-04-27T12:14:54.740Z,2.50
2023-04-27T12:17:41.956Z,2.80
2023-04-27T12:20:29.037Z,2.20
2023-04-27T12:23:16.058Z,2.60
2023-04-27T12:26:03.072Z,2.40
2023-04-27T12:28:50.098Z,2.40
2023-04-27T12:31:37.135Z,2.50
2023-04-27T12:34:24.206Z,2.70
2023-04-27T12:37:11.178Z,2.47
2023-04-27T12:39:58.214Z,2.60
2023-04-27T12:42:45.221Z,3.13
2023-04-27T12:45:32.206Z,2.37
2023-04-27T12:48:19.380Z,2.27
2023-04-27T12:51:07.248Z,2.50
2023-04-27T12:53:54.706Z,2.40
2023-04-27T12:56:42.094Z,2.50
2023-04-27T12:59:29.102Z,2.50
2023-04-27T13:02:17.261Z,2.40
2023-04-27T13:05:07.608Z,2.10
2023-04-27T13:07:54.738Z,2.00
2023-04-27T13:10:42.468Z,2.70
2023-04-27T13:13:29.563Z,2.10
2023-04-27T13:16:17.135Z,2.20
2023-04-27T13:19:04.135Z,2.67
2023-04-27T13:21:51.172Z,2.50
2023-04-27T13:24:38.168Z,2.43
2023-04-27T13:27:28.378Z,2.20
2023-04-27T13:30:15.656Z,1.90
2023-04-27T13:33:18.498Z,2.37
2023-04-27T13:36:09.887Z,2.13
2023-04-27T13:38:57.061Z,2.17
2023-04-27T13:41:44.120Z,1.97
2023-04-27T13:44:31.856Z,1.97
2023-04-27T13:47:19.895Z,2.17
2023-04-27T13:50:09.638Z,2.17
2023-04-27T13:52:56.938Z,1.90
2023-04-27T13:55:44.615Z,2.10
2023-04-27T13:58:32.073Z,2.40
2023-04-27T14:01:20.052Z,2.00
2023-04-27T14:04:07.581Z,2.10
2023-04-27T14:06:54.868Z,2.23
2023-04-27T14:09:42.033Z,1.83
2023-04-27T14:12:29.075Z,1.97
2023-04-27T14:15:16.068Z,2.27
2023-04-27T14:18:07.687Z,1.80
2023-04-27T14:20:55.598Z,2.30
2023-04-27T14:23:42.579Z,2.30
2023-04-27T14:26:29.581Z,2.23
2023-04-27T14:29:17.868Z,2.40
2023-04-27T14:32:06.329Z,1.80
2023-04-27T14:34:53.837Z,2.07
2023-04-27T14:37:40.849Z,2.30
2023-04-27T14:40:31.613Z,1.77
2023-04-27T14:43:18.617Z,1.97
2023-04-27T14:46:19.723Z,2.07
2023-04-27T14:49:07.667Z,1.90
2023-04-27T14:51:54.735Z,1.80
2023-04-27T14:54:41.827Z,2.30
2023-04-27T14:57:28.873Z,2.20
2023-04-27T15:00:16.302Z,1.70
2023-04-27T15:03:03.700Z,2.00
2023-04-27T15:05:51.569Z,1.80
2023-04-27T15:08:38.547Z,2.00
2023-04-27T15:11:25.542Z,1.70
2023-04-27T15:14:12.508Z,1.43
2023-04-27T15:16:59.615Z,1.90
2023-04-27T15:19:46.749Z,1.73
2023-04-27T15:22:34.076Z,1.53
2023-04-27T15:25:21.276Z,1.80
2023-04-27T15:28:08.258Z,1.53
2023-04-27T15:30:55.894Z,1.50
2023-04-27T15:33:42.905Z,1.67
2023-04-27T15:36:29.877Z,1.50
2023-04-27T15:39:17.014Z,1.70
2023-04-27T15:42:04.960Z,1.37
2023-04-27T15:44:52.160Z,1.70
2023-04-27T15:47:39.176Z,1.97
2023-04-27T15:50:26.189Z,1.50
2023-04-27T15:53:13.185Z,1.90
2023-04-27T15:56:00.161Z,1.40
2023-04-27T15:58:47.187Z,1.53
2023-04-27T16:01:34.413Z,1.90
2023-04-27T16:04:21.493Z,1.87
2023-04-27T16:07:08.509Z,1.53
2023-04-27T16:09:55.592Z,1.63
2023-04-27T16:12:42.651Z,1.80
2023-04-27T16:15:29.708Z,1.70
2023-04-27T16:18:16.791Z,1.50
2023-04-27T16:21:04.068Z,1.50
2023-04-27T16:23:51.635Z,1.57
2023-04-27T16:26:38.793Z,1.47
2023-04-27T16:29:25.808Z,1.63
2023-04-27T16:32:13.080Z,1.90
2023-04-27T16:35:00.115Z,1.50
2023-04-27T16:37:49.395Z,1.80
2023-04-27T16:40:36.404Z,1.67
2023-04-27T16:43:23.428Z,1.70
2023-04-27T16:46:11.369Z,1.53
2023-04-27T16:48:58.375Z,1.43
2023-04-27T16:51:45.516Z,1.43
2023-04-27T16:54:32.562Z,1.90
2023-04-27T16:57:20.461Z,1.37
2023-04-27T17:00:09.756Z,1.67
2023-04-27T17:02:57.040Z,1.10
2023-04-27T17:05:44.110Z,1.30
2023-04-27T17:08:31.245Z,1.10
2023-04-27T17:11:19.232Z,1.30
2023-04-27T17:14:06.194Z,1.20
2023-04-27T17:16:53.169Z,1.67
2023-04-27T17:19:40.394Z,1.30
2023-04-27T17:22:29.890Z,1.23
2023-04-27T17:25:16.915Z,1.40
2023-04-27T17:28:04.102Z,1.13
2023-04-27T17:30:51.126Z,1.23
2023-04-27T17:33:39.283Z,1.30
2023-04-27T17:36:26.512Z,1.40
2023-04-27T17:39:14.573Z,1.33
2023-04-27T17:42:02.075Z,1.13
2023-04-27T17:44:49.121Z,1.20
2023-04-27T17:47:36.409Z,1.10
2023-04-27T17:50:25.418Z,1.10
2023-04-27T17:53:13.114Z,1.20
2023-04-27T17:56:00.250Z,1.20
2023-04-27T17:58:47.288Z,1.40
2023-04-27T18:01:34.382Z,1.30
2023-04-27T18:04:21.513Z,1.40
2023-04-27T18:07:08.968Z,1.10
2023-04-27T18:09:57.459Z,1.27
2023-04-27T18:12:44.582Z,1.63
2023-04-27T18:15:31.634Z,1.30
2023-04-27T18:18:22.586Z,1.43
2023-04-27T18:21:11.737Z,1.30
2023-04-27T18:23:58.771Z,1.67
2023-04-27T18:26:45.930Z,1.50
2023-04-27T18:29:33.116Z,1.20
2023-04-27T18:32:20.053Z,1.40
2023-04-27T18:35:07.437Z,1.90
2023-04-27T18:37:54.390Z,1.93
2023-04-27T18:40:41.438Z,1.33
2023-04-27T18:43:28.449Z,1.20
2023-04-27T18:46:15.557Z,1.60
2023-04-27T18:49:02.651Z,1.80
2023-04-27T18:51:49.630Z,1.50
2023-04-27T18:54:39.842Z,1.50
2023-04-27T18:57:26.828Z,1.33
2023-04-27T19:00:14.146Z,1.40
2023-04-27T19:03:01.339Z,1.37
2023-04-27T19:05:48.698Z,1.50
2023-04-27T19:08:35.795Z,1.53
2023-04-27T19:11:24.865Z,1.53
2023-04-27T19:14:11.891Z,1.50
2023-04-27T19:16:58.949Z,1.50
2023-04-27T19:19:46.066Z,1.23
2023-04-27T19:22:34.856Z,1.27
2023-04-27T19:25:23.074Z,1.40
2023-04-27T19:28:10.350Z,1.57
2023-04-27T19:30:58.051Z,1.53
2023-04-27T19:33:47.412Z,1.40
2023-04-27T19:36:42.165Z,1.63
2023-04-27T19:39:29.264Z,1.50
2023-04-27T19:42:16.683Z,1.63
2023-04-27T19:45:04.034Z,1.90
2023-04-27T19:47:51.420Z,1.70
2023-04-27T19:50:41.257Z,1.90
2023-04-27T19:53:28.268Z,1.70
2023-04-27T19:56:15.440Z,1.57
2023-04-27T19:59:02.438Z,1.70
2023-04-27T20:01:49.628Z,1.57
2023-04-27T20:04:36.829Z,1.57
2023-04-27T20:07:24.042Z,1.70
2023-04-27T20:10:11.172Z,1.90
2023-04-27T20:12:58.179Z,1.80
2023-04-27T20:15:45.264Z,2.00
2023-04-27T20:18:32.469Z,1.90
2023-04-27T20:21:21.430Z,2.10
2023-04-27T20:24:08.539Z,2.30
2023-04-27T20:26:55.513Z,2.00
2023-04-27T20:29:44.797Z,1.90
2023-04-27T20:32:31.866Z,1.63
2023-04-27T20:35:19.018Z,1.90
2023-04-27T20:38:07.368Z,2.07
2023-04-27T20:40:54.386Z,1.73
2023-04-27T20:43:41.430Z,2.10
2023-04-27T20:46:29.596Z,1.83
2023-04-27T20:49:24.516Z,2.17
2023-04-27T20:52:15.782Z,2.17
2023-04-27T20:55:03.712Z,1.90
2023-04-27T20:57:50.960Z,2.03
2023-04-27T21:00:37.964Z,1.67
2023-04-27T21:03:25.072Z,2.10
2023-04-27T21:06:12.372Z,2.60
2023-04-27T21:09:00.330Z,2.73
2023-04-27T21:11:47.596Z,2.73
2023-04-27T21:14:34.738Z,2.37
2023-04-27T21:17:21.927Z,2.60
2023-04-27T21:20:09.918Z,2.77
2023-04-27T21:22:57.032Z,3.17
2023-04-27T21:25:45.195Z,3.10
2023-04-27T21:28:33.203Z,2.90
2023-04-27T21:31:20.744Z,3.23
2023-04-27T21:34:08.269Z,3.37
2023-04-27T21:36:55.544Z,2.83
2023-04-27T21:39:42.489Z,2.93
2023-04-27T21:42:29.551Z,3.00
2023-04-27T21:45:17.080Z,2.90
2023-04-27T21:48:04.401Z,2.60
2023-04-27T21:50:51.439Z,2.90
2023-04-27T21:53:38.422Z,3.00
2023-04-27T21:56:25.760Z,3.10
2023-04-27T21:59:12.720Z,2.93
2023-04-27T22:01:59.853Z,3.23
2023-04-27T22:04:49.009Z,3.10
2023-04-27T22:07:37.279Z,2.57
2023-04-27T22:10:24.501Z,2.77
2023-04-27T22:13:18.774Z,3.07
2023-04-27T22:16:06.549Z,3.00
2023-04-27T22:18:53.821Z,2.90
2023-04-27T22:21:40.965Z,2.70
2023-04-27T22:24:27.945Z,2.90
2023-04-27T22:27:15.102Z,3.40
2023-04-27T22:30:02.914Z,2.90
2023-04-27T22:32:50.318Z,2.67
2023-04-27T22:35:37.521Z,2.80
2023-04-27T22:38:24.903Z,2.80
2023-04-27T22:41:12.370Z,3.00
2023-04-27T22:43:59.415Z,2.90
2023-04-27T22:46:46.779Z,3.00
2023-04-27T22:49:37.291Z,2.63
2023-04-27T22:52:24.677Z,2.87
2023-04-27T22:55:12.568Z,3.00
2023-04-27T22:57:59.629Z,2.90
2023-04-27T23:00:46.630Z,3.10
2023-04-27T23:03:33.920Z,2.70
2023-04-27T23:06:21.142Z,2.97
2023-04-27T23:09:08.133Z,3.40
2023-04-27T23:11:57.772Z,3.17
2023-04-27T23:14:44.791Z,2.90
2023-04-27T23:17:31.931Z,3.00
2023-04-27T23:20:28.070Z,3.30
2023-04-27T23:23:16.110Z,3.43
2023-04-27T23:26:03.153Z,2.80
2023-04-27T23:28:50.150Z,2.70
2023-04-27T23:31:37.124Z,3.33
2023-04-27T23:34:24.196Z,3.57
2023-04-27T23:37:11.311Z,3.63
2023-04-27T23:39:58.304Z,3.20
2023-04-27T23:42:45.283Z,3.10
2023-04-27T23:45:32.246Z,3.27
2023-04-27T23:48:19.774Z,3.47
2023-04-27T23:51:06.813Z,3.60
2023-04-27T23:53:53.864Z,3.77
2023-04-27T23:56:40.858Z,3.03
2023-04-27T23:59:28.097Z,3.00
